Time;durP1;ratioP1;P1;durP2;ratioP2;P2;SDS_P1;SDS_P2;PMS_P1;PMS_P2;Temp;Humidity;BMP_temperature;BMP_pressure;BME280_temperature;BME280_humidity;BME280_pressure;Samples;Min_cycle;Max_cycle;Signal;HPM_P1;HPM_P2
2023/03/15 00:01:08;;;;;;;7.70;1.90;;;2.50;99.90;;;;;;4969732;28;20113;-54
2023/03/15 00:03:36;;;;;;;11.85;1.58;;;2.50;99.90;;;;;;4969998;28;20109;-56
2023/03/15 00:06:03;;;;;;;8.02;2.00;;;2.50;99.90;;;;;;4970173;28;20489;-56
2023/03/15 00:08:32;;;;;;;8.95;1.70;;;2.50;99.90;;;;;;4969822;28;20054;-55
2023/03/15 00:10:58;;;;;;;11.48;1.90;;;2.50;99.90;;;;;;4949393;28;20054;-54
2023/03/15 00:13:24;;;;;;;6.85;1.55;;;2.50;99.90;;;;;;4969790;28;20108;-55
2023/03/15 00:15:54;;;;;;;11.02;2.00;;;2.40;99.90;;;;;;4971061;28;20386;-53
2023/03/15 00:18:20;;;;;;;12.23;2.33;;;2.40;99.90;;;;;;4958772;28;20502;-56
2023/03/15 00:20:47;;;;;;;12.00;1.90;;;2.40;99.90;;;;;;4948600;28;20050;-55
2023/03/15 00:23:14;;;;;;;11.68;1.60;;;2.30;99.90;;;;;;4949172;28;20077;-50
2023/03/15 00:25:42;;;;;;;7.78;1.70;;;2.30;99.90;;;;;;4951412;28;20078;-54
2023/03/15 00:28:08;;;;;;;8.95;1.90;;;2.30;99.90;;;;;;4953521;28;20047;-54
2023/03/15 00:30:33;;;;;;;9.90;2.00;;;2.20;99.90;;;;;;4954697;28;21077;-53
2023/03/15 00:32:59;;;;;;;14.98;1.80;;;2.20;99.90;;;;;;4950920;28;20042;-56
2023/03/15 00:35:25;;;;;;;9.85;1.60;;;2.20;99.90;;;;;;4948357;28;20674;-55
2023/03/15 00:37:55;;;;;;;9.40;1.90;;;2.10;99.90;;;;;;4958566;28;20406;-54
2023/03/15 00:40:22;;;;;;;9.95;1.67;;;2.10;99.90;;;;;;4950219;28;20049;-54
2023/03/15 00:42:49;;;;;;;9.77;2.42;;;2.10;99.90;;;;;;4951328;28;20093;-54
2023/03/15 00:45:16;;;;;;;10.40;1.48;;;2.00;99.90;;;;;;4952629;28;20117;-55
2023/03/15 00:47:42;;;;;;;11.50;1.77;;;2.00;99.90;;;;;;4971134;28;20531;-54
2023/03/15 00:50:08;;;;;;;3.28;1.25;;;2.00;99.90;;;;;;4960712;28;20046;-52
2023/03/15 00:52:35;;;;;;;8.38;1.48;;;2.00;99.90;;;;;;4959544;28;20142;-54
2023/03/15 00:55:01;;;;;;;8.00;1.35;;;1.90;99.90;;;;;;4957256;28;20045;-50
2023/03/15 00:57:27;;;;;;;9.13;1.73;;;1.90;99.90;;;;;;4957986;28;20065;-54
2023/03/15 00:59:53;;;;;;;9.00;1.45;;;2.00;99.90;;;;;;4964752;28;20047;-52
2023/03/15 01:02:21;;;;;;;14.25;1.65;;;2.00;99.90;;;;;;4952548;28;20054;-51
2023/03/15 01:04:50;;;;;;;10.85;1.58;;;2.10;99.90;;;;;;4949401;28;20051;-53
2023/03/15 01:07:16;;;;;;;13.30;1.95;;;2.10;99.90;;;;;;4950415;28;20409;-55
2023/03/15 01:09:43;;;;;;;8.02;1.75;;;2.20;99.90;;;;;;4940764;28;20073;-53
2023/03/15 01:12:09;;;;;;;10.55;1.80;;;2.10;99.90;;;;;;4948498;28;20051;-56
2023/03/15 01:14:36;;;;;;;9.13;1.50;;;2.10;99.90;;;;;;4948642;28;20070;-56
2023/03/15 01:17:02;;;;;;;17.38;1.90;;;2.10;99.90;;;;;;4951156;28;20110;-56
2023/03/15 01:19:28;;;;;;;5.82;1.35;;;2.10;99.90;;;;;;4969426;28;20058;-55
2023/03/15 01:21:53;;;;;;;10.75;1.70;;;2.00;99.90;;;;;;4971148;28;20349;-53
2023/03/15 01:24:19;;;;;;;19.58;2.08;;;2.00;99.90;;;;;;4979600;28;20114;-55
2023/03/15 01:26:45;;;;;;;8.85;1.60;;;2.00;99.90;;;;;;4984331;28;20500;-51
2023/03/15 01:29:12;;;;;;;11.38;2.00;;;2.00;99.90;;;;;;4985029;28;20381;-56
2023/03/15 01:31:38;;;;;;;12.77;1.63;;;2.00;99.90;;;;;;4981998;28;20045;-51
2023/03/15 01:34:04;;;;;;;11.02;1.60;;;2.00;99.90;;;;;;4983247;28;20050;-51
2023/03/15 01:36:30;;;;;;;10.98;1.90;;;2.00;99.90;;;;;;4983818;28;20046;-50
2023/03/15 01:38:56;;;;;;;9.15;1.60;;;2.00;99.90;;;;;;4982113;28;20065;-52
2023/03/15 01:41:23;;;;;;;9.43;1.85;;;1.90;99.90;;;;;;4981387;28;20046;-49
2023/03/15 01:43:49;;;;;;;16.77;1.60;;;1.90;99.90;;;;;;4982419;28;20097;-51
2023/03/15 01:46:25;;;;;;;18.40;1.85;;;1.90;99.90;;;;;;4979344;28;20038;-56
2023/03/15 01:49:01;;;;;;;14.05;3.05;;;1.90;99.90;;;;;;4981699;28;20346;-53
2023/03/15 01:51:35;;;;;;;12.40;2.10;;;1.80;99.90;;;;;;4982518;28;20053;-53
2023/03/15 01:54:22;;;;;;;10.77;1.90;;;1.80;99.90;;;;;;4979704;28;20050;-53
2023/03/15 01:57:25;;;;;;;10.77;1.63;;;2.00;99.90;;;;;;4969921;28;20193;-56
2023/03/15 01:59:54;;;;;;;;;;;1.70;99.90;;;;;;4964221;28;20084;-54
2023/03/15 02:02:22;;;;;;;10.55;1.92;;;1.70;99.90;;;;;;4968831;28;20158;-52
2023/03/15 02:04:55;;;;;;;11.77;2.05;;;1.70;99.90;;;;;;4972156;28;20068;-53
2023/03/15 02:07:22;;;;;;;;;;;1.70;99.90;;;;;;4968181;28;20847;-56
2023/03/15 02:10:08;;;;;;;9.00;1.48;;;1.60;99.90;;;;;;4965563;28;20012;-53
2023/03/15 02:12:41;;;;;;;11.07;1.73;;;1.60;99.90;;;;;;4971402;28;20936;-57
2023/03/15 02:15:08;;;;;;;;;;;1.60;99.90;;;;;;4974169;28;20109;-54
2023/03/15 02:17:42;;;;;;;10.40;1.88;;;1.60;99.90;;;;;;4972159;28;20395;-55
2023/03/15 02:20:26;;;;;;;9.63;2.05;;;1.60;99.90;;;;;;4972771;28;20112;-52
2023/03/15 02:23:04;;;;;;;13.80;2.22;;;1.60;99.90;;;;;;4982603;28;20109;-54
2023/03/15 02:25:30;;;;;;;10.93;2.13;;;1.60;99.90;;;;;;4984784;28;20441;-56
2023/03/15 02:27:57;;;;;;;9.95;1.60;;;1.60;99.90;;;;;;4978560;28;20056;-55
2023/03/15 02:30:23;;;;;;;7.50;1.42;;;1.60;99.90;;;;;;4972701;28;20050;-54
2023/03/15 02:32:49;;;;;;;14.70;1.90;;;1.50;99.90;;;;;;4972704;28;20050;-54
2023/03/15 02:35:30;;;;;;;11.32;1.60;;;1.50;99.90;;;;;;4970308;28;20050;-53
2023/03/15 02:37:57;;;;;;;8.15;2.30;;;1.60;99.90;;;;;;4971822;28;20062;-55
2023/03/15 02:40:26;;;;;;;10.38;1.80;;;1.60;99.90;;;;;;4971039;28;20080;-55
2023/03/15 02:43:04;;;;;;;12.50;1.58;;;1.50;99.90;;;;;;4972527;28;20049;-54
2023/03/15 02:45:32;;;;;;;5.88;1.30;;;1.50;99.90;;;;;;4955580;28;20050;-55
2023/03/15 02:48:01;;;;;;;16.13;2.10;;;1.50;99.90;;;;;;4972209;28;20481;-52
2023/03/15 02:50:27;;;;;;;7.63;1.40;;;1.60;99.90;;;;;;4971625;28;20071;-54
2023/03/15 02:52:52;;;;;;;7.47;1.20;;;1.50;99.90;;;;;;4973002;28;20038;-55
2023/03/15 02:55:18;;;;;;;10.00;1.20;;;1.50;99.90;;;;;;4974652;28;20508;-51
2023/03/15 02:57:44;;;;;;;8.55;1.38;;;1.50;99.90;;;;;;4982008;28;20050;-53
2023/03/15 03:00:14;;;;;;;7.47;1.20;;;1.50;99.90;;;;;;4967254;28;20057;-53
2023/03/15 03:02:45;;;;;;;10.23;1.90;;;1.50;99.90;;;;;;4972237;28;20137;-56
2023/03/15 03:05:18;;;;;;;9.67;1.57;;;1.50;99.90;;;;;;4974718;28;20058;-54
2023/03/15 03:07:44;;;;;;;8.80;1.25;;;1.40;99.90;;;;;;4973345;28;20062;-53
2023/03/15 03:10:12;;;;;;;9.82;1.50;;;1.40;99.90;;;;;;4978840;28;20092;-57
2023/03/15 03:12:38;;;;;;;6.93;1.20;;;1.30;99.90;;;;;;4974154;28;20042;-56
2023/03/15 03:15:06;;;;;;;5.22;1.10;;;1.30;99.90;;;;;;4971131;28;20038;-53
2023/03/15 03:17:36;;;;;;;8.55;1.40;;;1.30;99.90;;;;;;4972134;28;20420;-53
2023/03/15 03:20:06;;;;;;;8.77;1.42;;;1.20;99.90;;;;;;4971827;28;20042;-53
2023/03/15 03:22:33;;;;;;;9.13;1.33;;;1.20;99.90;;;;;;4972454;28;20505;-55
2023/03/15 03:24:59;;;;;;;10.60;1.80;;;1.20;99.90;;;;;;4984693;28;20073;-53
2023/03/15 03:27:25;;;;;;;8.57;1.60;;;1.20;99.90;;;;;;4984090;28;20085;-53
2023/03/15 03:29:51;;;;;;;10.18;1.75;;;1.20;99.90;;;;;;4983802;28;20034;-54
2023/03/15 03:32:16;;;;;;;9.82;1.60;;;1.20;99.90;;;;;;4986560;28;20049;-54
2023/03/15 03:34:47;;;;;;;9.23;1.83;;;1.20;99.90;;;;;;4985689;28;20581;-53
2023/03/15 03:37:20;;;;;;;8.35;1.80;;;1.20;99.90;;;;;;4980913;28;20141;-53
2023/03/15 03:39:46;;;;;;;10.18;1.67;;;1.10;99.90;;;;;;4986862;28;20046;-51
2023/03/15 03:42:13;;;;;;;10.13;1.52;;;1.10;99.90;;;;;;4962258;28;20046;-53
2023/03/15 03:44:39;;;;;;;3.17;0.98;;;1.10;99.90;;;;;;4984995;28;20046;-51
2023/03/15 03:47:06;;;;;;;12.82;1.42;;;1.10;99.90;;;;;;4980014;28;20046;-50
2023/03/15 03:49:32;;;;;;;7.10;1.45;;;1.10;99.90;;;;;;4968222;28;20446;-53
2023/03/15 03:52:01;;;;;;;7.13;1.60;;;1.10;99.90;;;;;;4955290;28;20046;-55
2023/03/15 03:54:27;;;;;;;8.30;1.25;;;1.10;99.90;;;;;;4968414;28;20133;-53
2023/03/15 03:56:53;;;;;;;9.02;1.30;;;1.10;99.90;;;;;;4970096;28;20053;-53
2023/03/15 03:59:19;;;;;;;9.23;1.40;;;1.10;99.90;;;;;;4951280;28;20058;-53
2023/03/15 04:01:45;;;;;;;6.35;1.58;;;1.10;99.90;;;;;;4967743;28;20050;-53
2023/03/15 04:04:13;;;;;;;4.80;1.40;;;1.10;99.90;;;;;;4974509;28;20058;-53
2023/03/15 04:06:44;;;;;;;6.95;1.38;;;1.10;99.90;;;;;;4974636;28;20073;-56
2023/03/15 04:09:12;;;;;;;4.38;0.98;;;1.00;99.90;;;;;;4973877;28;20053;-55
2023/03/15 04:11:42;;;;;;;4.03;1.05;;;1.00;99.90;;;;;;4970704;28;20080;-56
2023/03/15 04:14:12;;;;;;;4.95;1.02;;;1.00;99.90;;;;;;4971512;28;20084;-54
2023/03/15 04:16:38;;;;;;;6.28;1.02;;;1.00;99.90;;;;;;4971718;28;20042;-51
2023/03/15 04:19:05;;;;;;;7.50;1.38;;;1.00;99.90;;;;;;4942055;28;20069;-53
2023/03/15 04:21:31;;;;;;;5.80;0.90;;;0.90;99.90;;;;;;4951139;28;20136;-50
2023/03/15 04:23:58;;;;;;;4.25;1.20;;;0.90;99.90;;;;;;4952178;28;20050;-51
2023/03/15 04:26:25;;;;;;;7.28;1.05;;;0.90;99.90;;;;;;4952021;28;20460;-53
2023/03/15 04:28:55;;;;;;;5.18;1.60;;;0.80;99.90;;;;;;4951817;28;20409;-50
2023/03/15 04:31:25;;;;;;;5.25;1.48;;;0.80;99.90;;;;;;4954265;28;20501;-54
2023/03/15 04:33:55;;;;;;;3.60;0.95;;;0.80;99.90;;;;;;4945288;28;20042;-54
2023/03/15 04:36:22;;;;;;;6.35;1.08;;;0.80;99.90;;;;;;4949889;28;20043;-56
2023/03/15 04:38:48;;;;;;;4.68;1.08;;;0.70;99.90;;;;;;4951211;28;20101;-50
2023/03/15 04:41:16;;;;;;;6.50;1.73;;;0.70;99.90;;;;;;4954098;28;20049;-54
2023/03/15 04:43:43;;;;;;;9.30;1.10;;;0.70;99.90;;;;;;4953753;28;20057;-51
2023/03/15 04:46:08;;;;;;;5.70;1.17;;;0.60;99.90;;;;;;4950377;28;20043;-54
2023/03/15 04:48:36;;;;;;;2.42;0.93;;;0.60;99.90;;;;;;4951586;28;20082;-51
2023/03/15 04:51:02;;;;;;;7.85;1.45;;;0.60;99.90;;;;;;4953637;28;22030;-51
2023/03/15 04:53:28;;;;;;;4.30;1.38;;;0.60;99.90;;;;;;4951895;28;20189;-52
2023/03/15 04:55:53;;;;;;;4.13;1.10;;;0.60;99.90;;;;;;4953264;28;20043;-57
2023/03/15 04:58:19;;;;;;;6.03;1.20;;;0.60;99.90;;;;;;4948027;28;20046;-53
2023/03/15 05:00:46;;;;;;;8.30;1.30;;;0.60;99.90;;;;;;4950094;28;20043;-53
2023/03/15 05:03:12;;;;;;;5.07;1.00;;;0.50;99.90;;;;;;4948642;28;20046;-54
2023/03/15 05:05:38;;;;;;;3.00;0.80;;;0.50;99.90;;;;;;4956801;28;20468;-51
2023/03/15 05:08:04;;;;;;;3.95;0.95;;;0.50;99.90;;;;;;4951310;28;20046;-55
2023/03/15 05:10:30;;;;;;;3.55;0.95;;;0.40;99.90;;;;;;4951236;28;20038;-56
2023/03/15 05:12:56;;;;;;;6.53;1.25;;;0.40;99.90;;;;;;4949875;28;20053;-51
2023/03/15 05:15:21;;;;;;;2.55;1.00;;;0.30;99.90;;;;;;4953786;28;20042;-55
2023/03/15 05:17:47;;;;;;;3.03;1.33;;;0.30;99.90;;;;;;4954115;28;20058;-53
2023/03/15 05:20:14;;;;;;;3.40;0.80;;;0.20;99.90;;;;;;4975294;28;20061;-52
2023/03/15 05:22:41;;;;;;;5.57;1.23;;;0.20;99.90;;;;;;4975550;28;20042;-54
2023/03/15 05:25:09;;;;;;;6.07;1.33;;;0.20;99.90;;;;;;4977485;28;20056;-51
2023/03/15 05:27:36;;;;;;;1.95;0.88;;;0.10;99.90;;;;;;4982530;28;20046;-51
2023/03/15 05:30:02;;;;;;;3.88;1.13;;;0.20;99.90;;;;;;4981592;28;21043;-52
2023/03/15 05:32:33;;;;;;;8.88;1.65;;;0.10;99.90;;;;;;4984968;28;20054;-55
2023/03/15 05:35:00;;;;;;;5.53;1.50;;;0.00;99.90;;;;;;4967583;28;20043;-52
2023/03/15 05:37:26;;;;;;;3.80;1.20;;;0.00;99.90;;;;;;4957328;28;20113;-56
2023/03/15 05:39:52;;;;;;;10.90;1.77;;;0.00;99.90;;;;;;4980987;28;20047;-53
2023/03/15 05:42:24;;;;;;;4.80;1.17;;;0.00;99.90;;;;;;4983834;28;20048;-50
2023/03/15 05:44:50;;;;;;;8.43;1.65;;;0.00;99.90;;;;;;4987103;28;20061;-50
2023/03/15 05:47:16;;;;;;;5.75;1.40;;;0.10;99.90;;;;;;4988729;28;20117;-55
2023/03/15 05:49:42;;;;;;;6.75;1.42;;;0.10;99.90;;;;;;4987245;28;20141;-54
2023/03/15 05:52:08;;;;;;;7.05;2.05;;;0.10;99.90;;;;;;4987145;28;20034;-54
2023/03/15 05:54:34;;;;;;;8.43;1.88;;;0.20;99.90;;;;;;4979786;28;20042;-55
2023/03/15 05:57:00;;;;;;;8.63;2.30;;;0.20;99.90;;;;;;4969380;28;20042;-53
2023/03/15 05:59:26;;;;;;;11.93;1.90;;;0.30;99.90;;;;;;4981431;28;20133;-56
2023/03/15 06:01:51;;;;;;;10.20;1.52;;;0.30;99.90;;;;;;4975647;28;20054;-51
2023/03/15 06:04:17;;;;;;;18.55;2.78;;;0.30;99.90;;;;;;4972630;28;20709;-54
2023/03/15 06:06:43;;;;;;;9.27;1.63;;;0.40;99.90;;;;;;4971084;28;20046;-50
2023/03/15 06:09:09;;;;;;;6.88;1.60;;;0.30;99.90;;;;;;4959868;28;20050;-51
2023/03/15 06:11:35;;;;;;;11.05;2.05;;;0.30;99.90;;;;;;4975095;28;20053;-57
2023/03/15 06:14:01;;;;;;;9.65;2.22;;;0.30;99.90;;;;;;4972264;28;20345;-54
2023/03/15 06:16:26;;;;;;;6.90;2.03;;;0.30;99.90;;;;;;4971949;28;20042;-52
2023/03/15 06:18:52;;;;;;;8.75;1.90;;;0.30;99.90;;;;;;4956006;28;20089;-51
2023/03/15 06:21:18;;;;;;;8.50;1.77;;;0.30;99.90;;;;;;4968936;28;20104;-57
2023/03/15 06:23:44;;;;;;;8.00;2.05;;;0.30;99.90;;;;;;4970141;28;20042;-56
2023/03/15 06:26:10;;;;;;;7.25;1.95;;;0.30;99.90;;;;;;4977193;28;20372;-52
2023/03/15 06:28:35;;;;;;;7.65;2.03;;;0.30;99.90;;;;;;4969960;28;20567;-53
2023/03/15 06:31:13;;;;;;;8.80;2.20;;;0.30;99.90;;;;;;4972900;28;20034;-53
2023/03/15 06:33:39;;;;;;;6.72;1.55;;;0.30;99.90;;;;;;4973837;28;20057;-53
2023/03/15 06:36:06;;;;;;;10.18;1.63;;;0.30;99.90;;;;;;4973883;28;20093;-52
2023/03/15 06:38:31;;;;;;;6.90;1.80;;;0.30;99.90;;;;;;4977733;28;20169;-53
2023/03/15 06:41:01;;;;;;;12.50;2.60;;;0.30;99.90;;;;;;4971800;28;20065;-54
2023/03/15 06:43:27;;;;;;;10.23;2.03;;;0.30;99.90;;;;;;4968415;28;20050;-51
2023/03/15 06:45:54;;;;;;;13.60;2.28;;;0.40;99.90;;;;;;4973840;28;20078;-53
2023/03/15 06:48:20;;;;;;;10.63;1.75;;;0.40;99.90;;;;;;4981807;28;20122;-51
2023/03/15 06:50:46;;;;;;;10.70;2.10;;;0.40;99.90;;;;;;4985121;28;20072;-56
2023/03/15 06:53:12;;;;;;;9.70;1.60;;;0.40;99.90;;;;;;4984912;28;20113;-57
2023/03/15 06:55:38;;;;;;;8.45;1.50;;;0.40;99.90;;;;;;4985977;28;20086;-54
2023/03/15 06:58:04;;;;;;;10.32;2.03;;;0.50;99.90;;;;;;4961623;28;20073;-54
2023/03/15 07:00:29;;;;;;;9.55;2.00;;;0.50;99.90;;;;;;4987747;28;20061;-52
2023/03/15 07:02:55;;;;;;;8.57;1.60;;;0.50;99.90;;;;;;4980456;28;20582;-57
2023/03/15 07:05:22;;;;;;;7.88;1.67;;;0.50;99.90;;;;;;4987273;28;20179;-53
2023/03/15 07:07:48;;;;;;;6.15;1.63;;;0.60;99.90;;;;;;4978742;28;20054;-53
2023/03/15 07:10:14;;;;;;;9.57;1.92;;;0.60;99.90;;;;;;4980933;28;20061;-56
2023/03/15 07:12:40;;;;;;;7.65;2.22;;;0.60;99.90;;;;;;4981326;28;20076;-52
2023/03/15 07:15:07;;;;;;;6.75;1.80;;;0.70;99.90;;;;;;4985983;28;20069;-51
2023/03/15 07:17:33;;;;;;;8.90;1.88;;;0.70;99.90;;;;;;4978612;28;20130;-51
2023/03/15 07:19:59;;;;;;;6.82;2.03;;;0.70;99.90;;;;;;4958845;28;20151;-49
2023/03/15 07:22:25;;;;;;;8.18;1.90;;;0.80;99.90;;;;;;4957308;28;20054;-47
2023/03/15 07:24:51;;;;;;;7.20;1.83;;;0.90;99.90;;;;;;4962945;28;20106;-48
2023/03/15 07:27:17;;;;;;;7.80;2.78;;;0.90;99.90;;;;;;4968096;28;20039;-50
2023/03/15 07:29:43;;;;;;;7.47;2.08;;;0.90;99.90;;;;;;4969557;28;20050;-51
2023/03/15 07:32:08;;;;;;;8.15;2.03;;;1.00;99.90;;;;;;4948860;28;20066;-51
2023/03/15 07:34:34;;;;;;;14.75;2.85;;;1.00;99.90;;;;;;4959300;28;20049;-48
2023/03/15 07:37:00;;;;;;;9.98;1.80;;;1.00;99.90;;;;;;4961767;28;20041;-50
2023/03/15 07:39:27;;;;;;;10.15;2.17;;;1.10;99.90;;;;;;4965784;28;20043;-51
2023/03/15 07:41:53;;;;;;;11.48;1.83;;;1.10;99.90;;;;;;4967373;28;20047;-53
2023/03/15 07:44:19;;;;;;;14.57;1.70;;;1.20;99.90;;;;;;4968128;28;20386;-49
2023/03/15 07:46:45;;;;;;;17.42;2.85;;;1.30;99.90;;;;;;4968445;28;20491;-49
2023/03/15 07:49:11;;;;;;;10.05;1.63;;;1.30;99.90;;;;;;4945992;28;20045;-51
2023/03/15 07:51:37;;;;;;;15.25;3.65;;;1.30;99.90;;;;;;4968163;28;20038;-51
2023/03/15 07:54:03;;;;;;;16.77;2.40;;;1.40;99.90;;;;;;4960321;28;20053;-52
2023/03/15 07:56:29;;;;;;;7.63;2.00;;;1.50;99.90;;;;;;4958448;28;20054;-50
2023/03/15 07:58:54;;;;;;;9.75;1.95;;;1.60;99.90;;;;;;4957323;28;20082;-52
2023/03/15 08:01:20;;;;;;;9.98;2.78;;;1.70;99.90;;;;;;4950899;28;20521;-49
2023/03/15 08:03:46;;;;;;;12.95;2.20;;;1.80;99.90;;;;;;4939322;28;20113;-51
2023/03/15 08:06:12;;;;;;;18.08;2.42;;;1.90;99.90;;;;;;4957605;28;20440;-50
2023/03/15 08:08:37;;;;;;;13.25;2.15;;;1.90;99.90;;;;;;4959625;28;20055;-51
2023/03/15 08:11:04;;;;;;;11.55;2.15;;;2.10;99.90;;;;;;4956349;28;20042;-52
2023/03/15 08:13:30;;;;;;;9.60;2.22;;;2.20;99.90;;;;;;4955474;28;20057;-50
2023/03/15 08:15:56;;;;;;;11.20;3.03;;;2.30;99.90;;;;;;4954553;28;20055;-51
2023/03/15 08:18:21;;;;;;;11.95;2.45;;;2.50;99.90;;;;;;4956883;28;20066;-49
2023/03/15 08:20:47;;;;;;;10.73;2.40;;;2.60;99.90;;;;;;4972130;28;20050;-50
2023/03/15 08:23:15;;;;;;;13.13;2.20;;;2.80;99.90;;;;;;4968344;28;20050;-50
2023/03/15 08:25:42;;;;;;;11.20;2.30;;;2.90;99.90;;;;;;4967079;28;20046;-48
2023/03/15 08:28:08;;;;;;;15.85;2.40;;;3.00;99.90;;;;;;4971947;28;20512;-49
2023/03/15 08:30:34;;;;;;;12.80;2.45;;;3.20;99.90;;;;;;4971899;28;20046;-50
2023/03/15 08:33:00;;;;;;;12.20;2.20;;;3.30;99.90;;;;;;4973810;28;20850;-53
2023/03/15 08:35:26;;;;;;;4.47;1.52;;;3.50;99.90;;;;;;4973768;28;20137;-52
2023/03/15 08:37:52;;;;;;;7.05;2.20;;;3.60;99.90;;;;;;4956200;28;20046;-52
2023/03/15 08:40:25;;;;;;;10.07;2.17;;;3.70;99.90;;;;;;4973330;28;20046;-48
2023/03/15 08:42:52;;;;;;;9.90;1.80;;;3.80;99.90;;;;;;4972763;28;20042;-51
2023/03/15 08:45:19;;;;;;;8.88;1.75;;;3.90;99.90;;;;;;4972837;28;20492;-50
2023/03/15 08:47:45;;;;;;;8.43;1.90;;;4.00;99.90;;;;;;4975223;28;20496;-51
2023/03/15 08:50:14;;;;;;;7.63;1.80;;;4.20;99.90;;;;;;4975232;28;20049;-51
2023/03/15 08:52:40;;;;;;;8.77;2.22;;;4.20;99.90;;;;;;4974050;28;20133;-48
2023/03/15 08:55:07;;;;;;;10.40;1.45;;;4.40;99.90;;;;;;4970118;28;20049;-50
2023/03/15 08:57:33;;;;;;;5.55;1.55;;;4.50;99.90;;;;;;4959152;28;20050;-46
2023/03/15 09:00:00;;;;;;;8.63;1.73;;;4.60;99.90;;;;;;4974707;28;20073;-52
2023/03/15 09:02:27;;;;;;;9.45;1.55;;;4.70;99.90;;;;;;4958639;28;20026;-53
2023/03/15 09:04:53;;;;;;;7.00;1.42;;;4.80;99.90;;;;;;4975535;28;20043;-46
2023/03/15 09:07:21;;;;;;;7.22;1.60;;;4.90;99.90;;;;;;4979600;28;20117;-51
2023/03/15 09:09:47;;;;;;;9.50;1.75;;;5.00;99.90;;;;;;4969278;28;20105;-48
2023/03/15 09:12:15;;;;;;;8.18;1.85;;;5.10;99.90;;;;;;4972442;28;20049;-48
2023/03/15 09:14:41;;;;;;;6.40;1.80;;;5.20;99.90;;;;;;4977771;28;20379;-47
2023/03/15 09:17:07;;;;;;;7.15;1.75;;;5.30;99.90;;;;;;4974893;28;20049;-49
2023/03/15 09:19:33;;;;;;;12.07;1.92;;;5.40;99.90;;;;;;4971363;28;20136;-49
2023/03/15 09:21:59;;;;;;;10.40;1.73;;;5.50;99.90;;;;;;4979999;28;20549;-51
2023/03/15 09:24:25;;;;;;;9.07;1.80;;;5.60;99.90;;;;;;4981527;28;20054;-48
2023/03/15 09:26:51;;;;;;;6.50;1.58;;;5.70;99.90;;;;;;4985739;28;20065;-52
2023/03/15 09:29:16;;;;;;;6.80;1.45;;;5.80;99.90;;;;;;4986587;28;20106;-48
2023/03/15 09:31:42;;;;;;;10.07;1.80;;;5.90;99.90;;;;;;4987231;28;20097;-51
2023/03/15 09:34:09;;;;;;;11.80;1.85;;;6.00;99.90;;;;;;4984016;28;20117;-47
2023/03/15 09:36:34;;;;;;;9.85;1.73;;;6.10;99.90;;;;;;4984269;28;20470;-48
2023/03/15 09:39:01;;;;;;;9.43;2.13;;;6.30;99.90;;;;;;4987949;28;20046;-50
2023/03/15 09:41:43;;;;;;;10.77;1.70;;;6.30;99.90;;;;;;4985921;28;20054;-47
2023/03/15 09:44:39;;;;;;;8.80;1.73;;;6.40;99.90;;;;;;4986004;28;20042;-47
2023/03/15 09:47:39;;;;;;;11.18;2.10;;;6.50;99.90;;;;;;4986254;28;20424;-48
2023/03/15 09:50:11;;;;;;;13.55;2.08;;;6.60;99.90;;;;;;4979594;28;20054;-49
2023/03/15 09:53:00;;;;;;;7.83;1.50;;;6.60;99.90;;;;;;4984212;28;20394;-49
2023/03/15 09:55:28;;;;;;;7.15;1.25;;;6.80;99.90;;;;;;4971526;28;20043;-48
2023/03/15 09:58:02;;;;;;;10.48;1.30;;;6.80;99.90;;;;;;4971198;28;20046;-48
2023/03/15 10:00:31;;;;;;;9.30;2.20;;;6.90;99.90;;;;;;4974645;28;20046;-53
2023/03/15 10:03:00;;;;;;;11.43;1.67;;;7.00;99.90;;;;;;4949131;28;20050;-53
2023/03/15 10:05:48;;;;;;;4.43;1.40;;;7.10;99.90;;;;;;4966599;28;20050;-50
2023/03/15 10:08:18;;;;;;;8.50;2.03;;;7.10;99.90;;;;;;4970688;28;20109;-51
2023/03/15 10:11:07;;;;;;;7.40;1.95;;;7.20;99.90;;;;;;4969499;28;20058;-47
2023/03/15 10:13:52;;;;;;;8.27;1.88;;;7.40;99.90;;;;;;4971525;28;20458;-49
2023/03/15 10:16:26;;;;;;;8.95;1.50;;;7.50;99.90;;;;;;4974671;28;20108;-51
2023/03/15 10:18:55;;;;;;;12.68;2.08;;;7.50;99.90;;;;;;4973140;28;20165;-52
2023/03/15 10:21:38;;;;;;;11.70;1.85;;;7.60;99.90;;;;;;4974214;28;20054;-51
2023/03/15 10:24:14;;;;;;;14.27;1.70;;;7.70;99.90;;;;;;4976704;28;20047;-50
2023/03/15 10:26:43;;;;;;;5.85;1.55;;;7.80;99.90;;;;;;4971566;28;20057;-51
2023/03/15 10:29:18;;;;;;;10.30;1.63;;;7.90;99.90;;;;;;4953337;28;20054;-51
2023/03/15 10:31:45;;;;;;;9.93;2.03;;;7.90;99.90;;;;;;4978842;28;20374;-54
2023/03/15 10:34:12;;;;;;;11.10;2.35;;;8.00;99.90;;;;;;4975765;28;20046;-51
2023/03/15 10:36:48;;;;;;;7.90;1.70;;;8.10;99.90;;;;;;4977082;28;20046;-54
2023/03/15 10:39:15;;;;;;;10.93;1.48;;;8.30;99.90;;;;;;4977871;28;20053;-50
2023/03/15 10:41:46;;;;;;;13.68;1.77;;;8.40;99.90;;;;;;4978122;28;20489;-52
2023/03/15 10:44:21;;;;;;;8.13;1.80;;;8.50;99.90;;;;;;4949757;28;20042;-53
2023/03/15 10:47:13;;;;;;;6.72;1.45;;;8.70;99.90;;;;;;4977251;28;20050;-52
2023/03/15 10:49:40;;;;;;;8.82;1.83;;;8.90;99.90;;;;;;4977346;28;20086;-53
2023/03/15 10:52:24;;;;;;;9.82;1.70;;;8.90;99.00;;;;;;4976559;28;20030;-54
2023/03/15 10:54:51;;;;;;;9.35;1.90;;;9.00;98.70;;;;;;4975396;28;20050;-53
2023/03/15 10:57:20;;;;;;;7.40;1.48;;;9.10;99.00;;;;;;4986105;28;20053;-51
2023/03/15 11:00:16;;;;;;;8.27;1.75;;;9.10;98.60;;;;;;4979107;28;20049;-51
2023/03/15 11:03:00;;;;;;;11.40;1.73;;;8.90;98.80;;;;;;4978949;28;20057;-53
2023/03/15 11:05:31;;;;;;;10.70;1.75;;;8.80;99.00;;;;;;4977070;28;20042;-53
2023/03/15 11:07:59;;;;;;;7.18;1.75;;;8.80;99.10;;;;;;4971695;28;20118;-53
2023/03/15 11:10:28;;;;;;;10.07;1.90;;;8.90;97.80;;;;;;4976267;28;20489;-51
2023/03/15 11:13:20;;;;;;;6.90;1.58;;;9.10;97.90;;;;;;4975441;28;20074;-52
2023/03/15 11:15:55;;;;;;;9.82;2.10;;;9.30;98.30;;;;;;4975361;28;20057;-51
2023/03/15 11:18:28;;;;;;;6.80;1.40;;;9.60;97.90;;;;;;4967336;28;20062;-54
2023/03/15 11:20:56;;;;;;;7.38;1.50;;;9.80;97.90;;;;;;4959356;28;20046;-49
2023/03/15 11:23:26;;;;;;;8.48;1.58;;;10.00;97.40;;;;;;4958357;28;20051;-52
2023/03/15 11:25:53;;;;;;;11.80;1.77;;;10.00;95.60;;;;;;4957984;28;20047;-54
2023/03/15 11:28:26;;;;;;;7.07;1.83;;;10.00;94.90;;;;;;4964080;28;20137;-51
2023/03/15 11:30:52;;;;;;;;;;;9.90;94.50;;;;;;4962628;28;20077;-51
2023/03/15 11:33:47;;;;;;;7.70;1.58;;;10.00;95.80;;;;;;4956316;28;19929;-53
2023/03/15 11:36:23;;;;;;;5.22;1.20;;;10.10;94.50;;;;;;4970006;28;20051;-53
2023/03/15 11:38:52;;;;;;;10.23;1.58;;;10.10;92.60;;;;;;4969798;28;20053;-52
2023/03/15 11:41:35;;;;;;;8.68;1.40;;;10.20;93.60;;;;;;4966798;28;20122;-51
2023/03/15 11:44:04;;;;;;;6.90;1.23;;;10.30;92.90;;;;;;4968923;28;20043;-52
2023/03/15 11:46:36;;;;;;;6.55;1.58;;;10.40;92.50;;;;;;4968648;28;20121;-53
2023/03/15 11:49:16;;;;;;;6.30;1.73;;;10.50;92.60;;;;;;4966031;28;20086;-54
2023/03/15 11:51:42;;;;;;;9.00;1.40;;;10.70;91.90;;;;;;4961917;28;20046;-54
2023/03/15 11:54:14;;;;;;;7.57;1.80;;;10.80;91.40;;;;;;4964973;28;20038;-53
2023/03/15 11:56:42;;;;;;;9.40;1.70;;;10.80;90.60;;;;;;4952463;28;20157;-53
2023/03/15 11:59:12;;;;;;;5.70;1.35;;;10.80;89.50;;;;;;4955846;28;20704;-55
2023/03/15 12:02:08;;;;;;;10.63;1.50;;;10.90;90.40;;;;;;4954779;28;20051;-52
2023/03/15 12:04:34;;;;;;;12.50;1.50;;;11.00;90.20;;;;;;4932177;28;20134;-53
2023/03/15 12:07:30;;;;;;;7.18;1.50;;;11.20;89.80;;;;;;4955889;28;20409;-51
2023/03/15 12:10:03;;;;;;;8.18;1.38;;;11.20;86.10;;;;;;4954758;28;20136;-51
2023/03/15 12:12:29;;;;;;;;;;;11.20;86.80;;;;;;4957289;28;20050;-48
2023/03/15 12:15:17;;;;;;;8.35;1.88;;;11.30;89.60;;;;;;4955647;28;20343;-55
2023/03/15 12:17:50;;;;;;;6.55;1.48;;;11.50;87.90;;;;;;4949821;28;20065;-50
2023/03/15 12:20:20;;;;;;;11.38;1.80;;;11.80;87.00;;;;;;4973275;28;20086;-55
2023/03/15 12:22:52;;;;;;;8.10;1.63;;;11.80;84.70;;;;;;4973242;28;20074;-49
2023/03/15 12:25:34;;;;;;;10.02;1.85;;;11.90;83.30;;;;;;4969519;28;20504;-52
2023/03/15 12:28:07;;;;;;;7.07;1.30;;;12.00;81.40;;;;;;4969883;28;20060;-54
2023/03/15 12:30:43;;;;;;;;;;;12.00;81.80;;;;;;4972880;28;20049;-55
2023/03/15 12:33:19;;;;;;;10.20;2.17;;;12.00;82.10;;;;;;4966699;28;20420;-54
2023/03/15 12:35:46;;;;;;;8.07;1.48;;;12.00;81.70;;;;;;4927892;28;20129;-55
2023/03/15 12:38:17;;;;;;;7.43;1.55;;;12.00;80.70;;;;;;4970555;28;20105;-53
2023/03/15 12:40:54;;;;;;;4.93;1.13;;;12.20;77.70;;;;;;4963330;28;20054;-54
2023/03/15 12:43:40;;;;;;;5.93;1.20;;;12.20;77.00;;;;;;4970823;28;20560;-53
2023/03/15 12:46:06;;;;;;;8.52;1.50;;;12.30;76.80;;;;;;4946671;28;20062;-54
2023/03/15 12:48:32;;;;;;;8.73;1.67;;;12.40;77.10;;;;;;4965132;28;20054;-53
2023/03/15 12:51:04;;;;;;;6.18;1.30;;;12.50;76.20;;;;;;4967610;28;20046;-55
2023/03/15 12:53:38;;;;;;;6.13;1.55;;;12.50;75.30;;;;;;4969553;28;20046;-53
2023/03/15 12:56:31;;;;;;;5.80;1.40;;;12.50;75.70;;;;;;4970664;28;21912;-54
2023/03/15 12:59:23;;;;;;;6.85;1.50;;;12.60;75.80;;;;;;4970652;28;20065;-52
2023/03/15 13:01:50;;;;;;;5.40;1.50;;;12.80;74.50;;;;;;4964183;28;20132;-54
2023/03/15 13:04:16;;;;;;;6.60;1.60;;;12.90;75.70;;;;;;4973855;28;20054;-54